»·PEaware :: N7119M KSBA-KBUR

N7119M :: KSBA-KBUR

FLIGHT INFORMATION

Flight Status: Arrived
Operator: Privately registered:
United States
More flights under this callsign
Pilot: Steve M. (17666)
Aircraft: CESSNA 172 SKYHAWK
(C172)
More flights by this aircraft type
Origin: KSBA Santa Barbara Mun
United States
Destination: KBUR Bob Hope-Burbank
United States
More flights between these airports :: More routes between these airports
Route: +
File this flight plan on PilotEdge
Remarks:
Altitude:
(Current/Filed)
0ft
Speed:
(Current/Filed)
0kts
Departed: 13-Jan-18 01:52 PM
Arrived: 13-Jan-18 02:39 PM
Distance/Time
Traveled:
74nm/0:47
Distance/Time
To Go:
Arrived

Flight Plot

Page will automatically refresh every two minutes.


Map Options




Map Legend


Flown Route
Filed Route
Departure Airport
Arrival Airport
Navaid (VOR, NDB)
Fix

Horizontal Profiles

Position Reports

Time Latitude Longitude Heading Altitude Ground
Speed
13-Jan-18 13:51 34.432569 -119.835085 71 14ft 0kts
13-Jan-18 13:52 34.432569 -119.835085 71 14ft 0kts
13-Jan-18 13:53 34.432569 -119.835085 71 14ft 0kts
13-Jan-18 13:54 34.431735 -119.835390 178 14ft 13kts
13-Jan-18 13:55 34.428768 -119.835319 178 11ft 0kts
13-Jan-18 13:56 34.428768 -119.835319 178 11ft 0kts
13-Jan-18 13:57 34.428768 -119.835319 178 11ft 0kts
13-Jan-18 13:58 34.427384 -119.848063 263 459ft 72kts
13-Jan-18 13:59 34.423643 -119.870827 259 1562ft 74kts
13-Jan-18 14:00 34.418309 -119.903943 245 1492ft 104kts
13-Jan-18 14:01 34.397018 -119.897187 127 2503ft 92kts
13-Jan-18 14:02 34.383474 -119.874272 125 3588ft 84kts
13-Jan-18 14:03 34.369865 -119.851082 124 4588ft 85kts
13-Jan-18 14:04 34.357379 -119.827975 114 5545ft 83kts
13-Jan-18 14:05 34.349224 -119.800136 101 6359ft 91kts
13-Jan-18 14:06 34.344270 -119.770952 95 7239ft 84kts
13-Jan-18 14:07 34.340204 -119.737967 95 7501ft 117kts
13-Jan-18 14:08 34.335794 -119.697054 94 7471ft 125kts
13-Jan-18 14:09 34.331689 -119.655112 94 7470ft 126kts
13-Jan-18 14:10 34.327690 -119.613149 96 7473ft 123kts
13-Jan-18 14:11 34.324049 -119.575080 96 7467ft 108kts
13-Jan-18 14:12 34.320618 -119.538891 95 7467ft 109kts
13-Jan-18 14:13 34.317732 -119.508472 95 7466ft 109kts
13-Jan-18 14:14 34.314246 -119.471958 94 7465ft 109kts
13-Jan-18 14:15 34.310761 -119.435549 93 7464ft 108kts
13-Jan-18 14:16 34.307283 -119.399379 92 7464ft 109kts
13-Jan-18 14:17 34.303780 -119.362882 92 7463ft 109kts
13-Jan-18 14:18 34.300329 -119.327262 92 7462ft 110kts
13-Jan-18 14:19 34.296779 -119.290592 92 7463ft 111kts
13-Jan-18 14:20 34.293185 -119.253510 92 7465ft 111kts
13-Jan-18 14:21 34.289604 -119.216827 91 7465ft 111kts
13-Jan-18 14:22 34.285208 -119.179922 93 7464ft 110kts
13-Jan-18 14:23 34.281182 -119.143362 92 7466ft 109kts
13-Jan-18 14:24 34.277479 -119.107152 91 7468ft 109kts
13-Jan-18 14:25 34.273840 -119.070619 91 7471ft 109kts
13-Jan-18 14:26 34.270173 -119.033979 91 7470ft 109kts
13-Jan-18 14:27 34.266571 -118.997597 90 7474ft 109kts
13-Jan-18 14:28 34.262921 -118.960999 90 7472ft 110kts
13-Jan-18 14:29 34.259245 -118.924200 90 7473ft 111kts
13-Jan-18 14:30 34.255490 -118.886767 89 7470ft 112kts
13-Jan-18 14:31 34.251707 -118.849230 90 7481ft 112kts
13-Jan-18 14:32 34.247904 -118.811567 89 7508ft 114kts
13-Jan-18 14:33 34.244002 -118.773058 89 7509ft 116kts
13-Jan-18 14:34 34.240008 -118.733890 90 7513ft 118kts
13-Jan-18 14:35 34.235952 -118.693936 91 7383ft 125kts
13-Jan-18 14:36 34.231620 -118.652571 90 6891ft 124kts
13-Jan-18 14:37 34.227355 -118.611333 91 6401ft 124kts
13-Jan-18 14:38 34.223071 -118.570143 92 5926ft 125kts
13-Jan-18 14:39 34.218849 -118.530036 91 5248ft 122kts
13-Jan-18 14:40 34.212550 -118.489220 124 4257ft 129kts
13-Jan-18 14:41 34.189412 -118.458911 131 3563ft 122kts
13-Jan-18 14:42 34.170740 -118.429809 86 3523ft 107kts
13-Jan-18 14:43 34.195302 -118.408768 55 1848ft 109kts
13-Jan-18 14:44 34.197998 -118.378896 88 1014ft 81kts
13-Jan-18 14:45 34.197771 -118.359464 103 714ft 28kts
13-Jan-18 14:46 34.198554 -118.357959 356 713ft 0kts
13-Jan-18 14:47 34.198571 -118.357960 357 713ft 0kts
13-Jan-18 14:48 34.198610 -118.357962 354 713ft 5kts
13-Jan-18 14:49 34.199017 -118.363359 272 724ft 15kts
13-Jan-18 14:50 34.200338 -118.364811 88 727ft 0kts
13-Jan-18 14:51 34.200338 -118.364811 88 727ft 0kts
13-Jan-18 14:52 34.200338 -118.364811 88 727ft 0kts
13-Jan-18 14:53 34.200338 -118.364811 88 727ft 0kts
13-Jan-18 14:54 34.200338 -118.364811 88 727ft 0kts
13-Jan-18 14:55 34.200338 -118.364811 88 727ft 0kts
13-Jan-18 14:56 34.200338 -118.364811 88 727ft 0kts
13-Jan-18 14:57 34.200338 -118.364811 88 727ft 0kts
13-Jan-18 14:58 34.200338 -118.364811 88 727ft 0kts
13-Jan-18 14:59 34.200338 -118.364811 88 727ft 0kts

Navigation Log

Ident Type
1. KSBA Airport
2. KBUR Airport